createdAt,value
2022-12-04T00:04:01.331Z,-0.07
2022-12-04T00:09:05.590Z,0.13
2022-12-04T00:14:07.990Z,0.29
2022-12-04T00:19:10.408Z,0.11
2022-12-04T00:24:13.652Z,0.04
2022-12-04T00:29:15.646Z,0.00
2022-12-04T00:34:17.750Z,-0.20
2022-12-04T00:39:21.054Z,-0.22
2022-12-04T00:44:22.976Z,-0.13
2022-12-04T00:49:24.891Z,-0.09
2022-12-04T00:54:28.151Z,-0.32
2022-12-04T00:59:30.048Z,-0.31
2022-12-04T01:04:32.021Z,-0.30
2022-12-04T01:09:35.280Z,-0.39
2022-12-04T01:14:37.233Z,-0.11
2022-12-04T01:19:40.771Z,0.18
2022-12-04T01:24:44.050Z,-0.10
2022-12-04T01:29:46.086Z,-0.39
2022-12-04T01:34:48.053Z,-0.41
2022-12-04T01:39:51.310Z,-0.21
2022-12-04T01:45:26.648Z,-0.20
2022-12-04T01:50:29.123Z,-0.21
2022-12-04T01:55:32.587Z,-0.32
2022-12-04T02:00:34.516Z,-0.35
2022-12-04T02:05:36.497Z,-0.11
2022-12-04T02:10:46.080Z,-0.29
2022-12-04T02:15:54.268Z,-0.52
2022-12-04T02:21:06.381Z,-0.58
2022-12-04T02:26:25.898Z,-0.50
2022-12-04T02:31:35.313Z,-0.25
2022-12-04T02:36:43.146Z,-0.29
2022-12-04T02:41:51.228Z,-0.06
2022-12-04T02:46:57.681Z,-0.20
2022-12-04T02:52:01.437Z,-0.16
2022-12-04T02:57:07.183Z,-0.13
2022-12-04T03:02:15.681Z,0.12
2022-12-04T03:07:23.083Z,0.33
2022-12-04T03:12:30.146Z,-0.15
2022-12-04T03:17:38.639Z,-0.53
2022-12-04T03:22:43.987Z,-0.51
2022-12-04T03:27:52.266Z,-0.54
2022-12-04T03:33:00.024Z,-0.40
2022-12-04T03:38:05.015Z,-0.26
2022-12-04T03:43:13.444Z,-0.33
2022-12-04T03:48:23.334Z,-0.05
2022-12-04T03:53:32.338Z,-0.38
2022-12-04T03:58:38.062Z,-0.59
2022-12-04T04:03:44.801Z,-0.72
2022-12-04T04:08:50.872Z,-0.97
2022-12-04T04:14:17.343Z,-0.73
2022-12-04T04:19:40.935Z,-0.86
2022-12-04T04:24:45.801Z,-0.96
2022-12-04T04:29:52.364Z,-0.90
2022-12-04T04:35:03.585Z,-0.92
2022-12-04T04:40:15.344Z,-0.74
2022-12-04T04:45:22.034Z,-0.43
2022-12-04T04:50:26.826Z,-0.47
2022-12-04T04:55:34.304Z,-0.23
2022-12-04T05:00:37.068Z,-0.11
2022-12-04T05:05:40.317Z,-0.36
2022-12-04T05:10:42.253Z,-0.44
2022-12-04T05:15:44.521Z,-0.19
2022-12-04T05:20:47.819Z,-0.21
2022-12-04T05:25:49.793Z,-0.41
2022-12-04T05:30:54.956Z,-0.35
2022-12-04T05:35:59.025Z,-0.21
2022-12-04T05:41:02.247Z,-0.20
2022-12-04T05:46:05.378Z,-0.12
2022-12-04T05:51:10.038Z,0.34
2022-12-04T05:56:12.000Z,0.21
2022-12-04T06:01:16.290Z,0.52
2022-12-04T06:06:22.627Z,0.23
2022-12-04T06:11:27.189Z,0.11
2022-12-04T06:16:31.048Z,0.06
2022-12-04T06:21:36.918Z,-0.10
2022-12-04T06:26:52.037Z,0.13
2022-12-04T06:32:00.903Z,0.31
2022-12-04T06:37:04.274Z,0.26
2022-12-04T06:42:06.254Z,0.16
2022-12-04T06:47:09.095Z,-0.11
2022-12-04T06:52:12.430Z,0.05
2022-12-04T06:57:14.446Z,0.11
2022-12-04T07:02:16.391Z,-0.20
2022-12-04T07:07:20.305Z,0.02
2022-12-04T07:12:22.201Z,-0.12
2022-12-04T07:17:24.137Z,-0.05
2022-12-04T07:22:28.186Z,0.17
2022-12-04T07:27:30.167Z,0.11
2022-12-04T07:32:32.295Z,0.38
2022-12-04T07:37:36.881Z,0.58
2022-12-04T07:42:38.834Z,0.17
2022-12-04T07:47:40.780Z,0.16
2022-12-04T07:52:44.083Z,0.44
2022-12-04T07:57:46.015Z,0.97
2022-12-04T08:02:49.357Z,0.92
2022-12-04T08:07:52.654Z,1.02
2022-12-04T08:12:54.592Z,1.40
2022-12-04T08:17:56.579Z,1.63
2022-12-04T08:22:59.872Z,1.60
2022-12-04T08:28:01.810Z,1.91
2022-12-04T08:33:03.783Z,1.95
2022-12-04T08:38:07.536Z,1.90
2022-12-04T08:43:09.468Z,1.81
2022-12-04T08:48:11.439Z,1.76
2022-12-04T08:53:14.720Z,1.96
2022-12-04T08:58:17.541Z,1.84
2022-12-04T09:03:24.758Z,2.00
2022-12-04T09:08:31.463Z,2.59
2022-12-04T09:13:33.713Z,2.79
2022-12-04T09:18:36.822Z,2.77
2022-12-04T09:23:40.988Z,3.03
2022-12-04T09:28:42.912Z,3.17
2022-12-04T09:33:45.550Z,3.19
2022-12-04T09:38:50.360Z,3.05
2022-12-04T09:43:57.855Z,3.05
2022-12-04T09:49:04.805Z,2.97
2022-12-04T09:54:14.223Z,2.94
2022-12-04T09:59:22.210Z,2.80
2022-12-04T10:04:24.919Z,2.73
2022-12-04T10:09:36.224Z,2.54
2022-12-04T10:15:01.805Z,2.31
2022-12-04T10:20:17.446Z,2.37
2022-12-04T10:25:22.695Z,2.41
2022-12-04T10:30:27.436Z,2.24
2022-12-04T10:35:31.020Z,2.41
2022-12-04T10:40:41.510Z,2.31
2022-12-04T10:45:43.526Z,2.11
2022-12-04T10:50:45.575Z,2.37
2022-12-04T10:55:48.898Z,2.35
2022-12-04T11:01:02.389Z,2.21
2022-12-04T11:06:06.392Z,2.29
2022-12-04T11:11:12.841Z,2.11
2022-12-04T11:16:33.556Z,2.15
2022-12-04T11:21:35.563Z,2.55
2022-12-04T11:26:42.590Z,2.65
2022-12-04T11:31:49.053Z,3.01
2022-12-04T11:36:53.812Z,3.02
2022-12-04T11:42:02.807Z,2.97
2022-12-04T11:47:06.806Z,2.69
2022-12-04T11:52:20.191Z,2.97
2022-12-04T11:57:31.983Z,2.83
2022-12-04T12:02:57.980Z,2.97
2022-12-04T12:08:08.795Z,2.89
2022-12-04T12:13:22.845Z,2.87
2022-12-04T12:18:42.047Z,2.73
2022-12-04T12:24:00.137Z,2.50
2022-12-04T12:29:17.370Z,2.33
2022-12-04T12:34:30.143Z,2.16
2022-12-04T12:39:40.235Z,1.94
2022-12-04T12:44:53.424Z,1.68
2022-12-04T12:49:59.331Z,1.39
2022-12-04T12:55:13.243Z,1.51
2022-12-04T13:00:19.829Z,1.40
2022-12-04T13:05:26.491Z,1.25
2022-12-04T13:10:33.815Z,1.06
2022-12-04T13:15:41.524Z,0.67
2022-12-04T13:20:50.884Z,0.81
2022-12-04T13:25:59.770Z,0.96
2022-12-04T13:31:14.188Z,0.66
2022-12-04T13:36:52.929Z,0.71
2022-12-04T13:41:58.827Z,0.73
2022-12-04T13:47:04.806Z,0.72
2022-12-04T13:52:23.095Z,0.71
2022-12-04T13:57:27.347Z,0.66
2022-12-04T14:02:35.275Z,0.72
2022-12-04T14:07:39.922Z,0.33
2022-12-04T14:12:49.881Z,0.34
2022-12-04T14:18:01.174Z,0.25
2022-12-04T14:23:26.404Z,0.23
2022-12-04T14:28:42.580Z,0.29
2022-12-04T14:33:49.373Z,0.33
2022-12-04T14:39:03.054Z,0.09
2022-12-04T14:44:05.507Z,-0.03
2022-12-04T14:49:27.112Z,-0.13
2022-12-04T14:54:40.549Z,0.04
2022-12-04T14:59:45.353Z,-0.12
2022-12-04T15:04:50.785Z,-0.48
2022-12-04T15:10:15.924Z,-0.40
2022-12-04T15:15:24.798Z,-0.46
2022-12-04T15:20:37.449Z,-0.50
2022-12-04T15:25:45.608Z,-0.35
2022-12-04T15:30:49.568Z,-0.36
2022-12-04T15:35:57.098Z,-0.34
2022-12-04T15:41:00.785Z,-0.53
2022-12-04T15:46:12.976Z,-0.72
2022-12-04T15:51:20.524Z,-0.63
2022-12-04T15:56:23.698Z,-0.57
2022-12-04T16:01:26.361Z,-0.58
2022-12-04T16:06:32.065Z,-0.57
2022-12-04T16:11:37.053Z,-0.74
2022-12-04T16:16:43.788Z,-0.66
2022-12-04T16:21:47.574Z,-0.69
2022-12-04T16:26:51.177Z,-0.80
2022-12-04T16:31:57.040Z,-0.89
2022-12-04T16:37:12.220Z,-1.07
2022-12-04T16:42:17.377Z,-1.23
2022-12-04T16:47:19.692Z,-1.28
2022-12-04T16:52:23.165Z,-1.30
2022-12-04T16:57:25.289Z,-1.42
2022-12-04T17:02:27.607Z,-1.53
2022-12-04T17:07:31.094Z,-1.40
2022-12-04T17:12:33.051Z,-1.71
2022-12-04T17:17:35.153Z,-1.43
2022-12-04T17:22:38.902Z,-1.43
2022-12-04T17:27:40.921Z,-1.62
2022-12-04T17:32:42.906Z,-1.47
2022-12-04T17:37:46.346Z,-1.41
2022-12-04T17:42:48.326Z,-1.62
2022-12-04T17:47:50.610Z,-1.59
2022-12-04T17:52:53.937Z,-1.21
2022-12-04T17:57:55.982Z,-1.59
2022-12-04T18:02:58.200Z,-1.30
2022-12-04T18:08:01.678Z,-1.27
2022-12-04T18:13:03.936Z,-1.41
2022-12-04T18:18:05.925Z,-1.48
2022-12-04T18:23:09.190Z,-1.49
2022-12-04T18:28:11.391Z,-1.50
2022-12-04T18:33:17.561Z,-1.45
2022-12-04T18:38:22.929Z,-1.42
2022-12-04T18:43:24.903Z,-1.27
2022-12-04T18:48:27.405Z,-1.25
2022-12-04T18:53:30.778Z,-1.14
2022-12-04T18:58:32.891Z,-0.97
2022-12-04T19:03:35.372Z,-1.15
2022-12-04T19:08:43.039Z,-1.30
2022-12-04T19:13:45.534Z,-1.38
2022-12-04T19:18:47.637Z,-1.18
2022-12-04T19:23:54.857Z,-1.20
2022-12-04T19:28:57.830Z,-1.14
2022-12-04T19:34:00.719Z,-1.28
2022-12-04T19:39:05.188Z,-1.06
2022-12-04T19:44:39.661Z,-1.14
2022-12-04T19:49:29.291Z,-1.03
2022-12-04T19:54:32.595Z,-0.90
2022-12-04T19:59:38.602Z,-0.82
2022-12-04T20:04:43.270Z,-0.78
2022-12-04T20:09:52.108Z,-1.02
2022-12-04T20:14:54.523Z,-0.82
2022-12-04T20:19:56.808Z,-1.04
2022-12-04T20:25:00.217Z,-0.99
2022-12-04T20:30:02.248Z,-1.07
2022-12-04T20:35:04.759Z,-1.03
2022-12-04T20:40:09.130Z,-0.77
2022-12-04T20:45:11.583Z,-0.76
2022-12-04T20:50:13.520Z,-0.68
2022-12-04T20:55:17.054Z,-0.61
2022-12-04T21:00:19.268Z,-0.56
2022-12-04T21:05:21.215Z,-0.44
2022-12-04T21:10:24.531Z,-0.57
2022-12-04T21:15:45.136Z,-0.53
2022-12-04T21:20:47.219Z,-0.69
2022-12-04T21:25:50.492Z,-0.33
2022-12-04T21:30:52.503Z,-0.30
2022-12-04T21:35:54.604Z,-0.22
2022-12-04T21:40:57.874Z,-0.25
2022-12-04T21:46:05.846Z,-0.22
2022-12-04T21:51:32.746Z,-0.25
2022-12-04T21:56:34.361Z,-0.19
2022-12-04T22:01:36.887Z,-0.20
2022-12-04T22:06:39.021Z,-0.09
2022-12-04T22:11:42.473Z,-0.07
2022-12-04T22:16:44.454Z,-0.01
2022-12-04T22:21:46.476Z,0.10
2022-12-04T22:26:49.846Z,0.13
2022-12-04T22:31:51.890Z,0.19
2022-12-04T22:36:53.958Z,0.21
2022-12-04T22:41:57.281Z,0.13
2022-12-04T22:46:59.288Z,0.11
2022-12-04T22:52:01.262Z,0.14
2022-12-04T22:57:04.996Z,0.17
2022-12-04T23:02:06.914Z,0.00
2022-12-04T23:07:09.159Z,0.09
2022-12-04T23:12:12.448Z,0.12
2022-12-04T23:17:14.398Z,0.13
2022-12-04T23:22:16.331Z,0.19
2022-12-04T23:27:19.589Z,0.06
2022-12-04T23:32:21.577Z,0.07
2022-12-04T23:37:23.467Z,0.22
2022-12-04T23:42:30.749Z,0.37
2022-12-04T23:47:32.947Z,0.28
2022-12-04T23:52:34.880Z,0.12
2022-12-04T23:57:38.164Z,0.51
